McNary, Louisiana
Current Conditions -  °F | °C
As of 1:55 AM on Saturday 25 Oct 2014 (Local Time) from KACP Reporting Station
Clear Clear  
Wind Chill: 46°   Ceiling: Unl
Heat Index: 46°   Visibility: 10mi
Dew Point: 45°   Wind: 0mph
Humidity: 95%   Direction: NA
Pressure: 30.13"   Gusts: NA
Location:  30.9922°N, 92.6266°W
Report Text: KACP 250655Z AUTO 00000KT 10SM CLR 08/07 A3013 RMK AO2 T00790072
Loading
Personal Weather Stations






























Interactive Weather Map
Tropical Storm Tracking
New forecast layout! Learn more

10-Day Weather Forecast

Advertisements
Track Severe Weather on mobile